Terminal Aerodrome Forecast
Issued by NWS Shreveport, LA

Home | Current Version | Previous Version | Text Only | Print | Product List | Glossary On
Versions: 1 2 3 4 5 6 7 8 9 10 11 12 13 14
000
FTUS44 KSHV 181700
TAFSHV
TAF
KSHV 181724Z 1818/1918 11006KT P6SM SCT008 OVC016
     FM182200 07005KT P6SM OVC022
     FM190300 06004KT P6SM OVC015
     FM190600 05005KT P6SM VCSH OVC007
      TEMPO 1910/1914 5SM -SHRA BR OVC004
     FM191400 04008KT 4SM -RA BR OVC007
      TEMPO 1914/1918 2SM +SHRA OVC004=

USA.gov is the U.S. government's official web portal to all federal, state and local government web resources and services.